Time;durP1;ratioP1;P1;durP2;ratioP2;P2;SDS_P1;SDS_P2;PMS_P1;PMS_P2;Temp;Humidity;BMP_temperature;BMP_pressure;BME280_temperature;BME280_humidity;BME280_pressure;Samples;Min_cycle;Max_cycle;Signal;HPM_P1;HPM_P2
2022/11/28 00:01:51;;;;;;;5.25;2.92;;;12.50;82.30;;;;;;4968674;28;20026;-77
2022/11/28 00:04:16;;;;;;;4.72;2.63;;;12.50;82.30;;;;;;4979621;28;20026;-77
2022/11/28 00:06:45;;;;;;;4.35;2.60;;;12.50;82.70;;;;;;4964860;28;20037;-77
2022/11/28 00:09:12;;;;;;;5.10;2.70;;;12.40;82.00;;;;;;4974079;28;20046;-77
2022/11/28 00:11:39;;;;;;;4.53;2.80;;;12.50;82.10;;;;;;4961513;28;20078;-76
2022/11/28 00:14:05;;;;;;;5.53;2.90;;;12.40;82.00;;;;;;4973761;28;20412;-77
2022/11/28 00:16:31;;;;;;;5.10;2.70;;;12.40;82.20;;;;;;4962635;28;20023;-77
2022/11/28 00:18:58;;;;;;;5.03;2.70;;;12.40;81.50;;;;;;4975877;28;20080;-77
2022/11/28 00:21:24;;;;;;;5.10;2.80;;;12.40;81.70;;;;;;4975456;28;20036;-78
2022/11/28 00:23:50;;;;;;;4.80;2.60;;;12.40;81.80;;;;;;4993128;28;20109;-77
2022/11/28 00:26:22;;;;;;;5.63;2.95;;;12.40;82.20;;;;;;4975898;28;20026;-77
2022/11/28 00:28:49;;;;;;;4.43;2.30;;;12.40;82.00;;;;;;4975771;28;20441;-76
2022/11/28 00:31:18;;;;;;;4.85;2.80;;;12.40;82.10;;;;;;4992718;28;20514;-77
2022/11/28 00:33:44;;;;;;;3.85;2.20;;;12.40;81.90;;;;;;4975557;28;20031;-77
2022/11/28 00:36:11;;;;;;;4.57;2.30;;;12.40;82.00;;;;;;4992879;28;20398;-75
2022/11/28 00:38:37;;;;;;;4.80;2.53;;;12.40;82.00;;;;;;4975528;28;20038;-76
2022/11/28 00:41:15;;;;;;;4.43;2.60;;;12.40;82.10;;;;;;4975078;28;20023;-76
2022/11/28 00:43:42;;;;;;;4.97;2.78;;;12.40;82.00;;;;;;4992781;28;20121;-76
2022/11/28 00:46:08;;;;;;;3.97;2.40;;;12.40;82.20;;;;;;4992679;28;20384;-77
2022/11/28 00:48:34;;;;;;;4.55;2.60;;;12.40;82.20;;;;;;4992591;28;20493;-77
2022/11/28 00:51:09;;;;;;;4.65;2.25;;;12.40;82.10;;;;;;4975110;28;20113;-79
2022/11/28 00:53:36;;;;;;;4.30;2.60;;;12.40;82.10;;;;;;4969250;28;20487;-76
2022/11/28 00:56:06;;;;;;;4.35;2.45;;;12.30;82.00;;;;;;4961076;28;20106;-76
2022/11/28 00:58:33;;;;;;;4.97;2.47;;;12.30;81.90;;;;;;4980775;28;20574;-78
2022/11/28 01:00:59;;;;;;;4.43;2.60;;;12.30;81.90;;;;;;4973800;28;20038;-77
2022/11/28 01:03:24;;;;;;;4.65;2.53;;;12.30;82.00;;;;;;4969434;28;20026;-77
2022/11/28 01:05:50;;;;;;;4.45;2.45;;;12.30;82.00;;;;;;4992546;28;20037;-77
2022/11/28 01:08:15;;;;;;;4.60;2.70;;;12.30;82.00;;;;;;4975178;28;20026;-76
2022/11/28 01:10:44;;;;;;;5.05;2.50;;;12.30;82.00;;;;;;4971237;28;20479;-76
2022/11/28 01:13:10;;;;;;;3.75;2.45;;;12.30;82.00;;;;;;4955685;28;20030;-77
2022/11/28 01:15:42;;;;;;;4.65;2.45;;;12.30;82.10;;;;;;4973136;28;20037;-77
2022/11/28 01:18:08;;;;;;;3.92;2.38;;;12.30;82.10;;;;;;4955796;28;20030;-76
2022/11/28 01:20:33;;;;;;;4.25;2.25;;;12.30;82.00;;;;;;4955386;28;20400;-76
2022/11/28 01:22:59;;;;;;;4.40;2.45;;;12.30;82.10;;;;;;4984543;28;20042;-77
2022/11/28 01:25:24;;;;;;;4.65;2.45;;;12.30;82.10;;;;;;4980622;28;20058;-77
2022/11/28 01:27:50;;;;;;;4.55;2.40;;;12.30;82.10;;;;;;4974878;28;20031;-76
2022/11/28 01:30:15;;;;;;;4.22;2.40;;;12.30;82.10;;;;;;4974652;28;20023;-77
2022/11/28 01:32:41;;;;;;;3.97;2.25;;;12.30;82.10;;;;;;4977217;28;20031;-77
2022/11/28 01:35:07;;;;;;;4.32;2.40;;;12.30;82.50;;;;;;4966603;28;20027;-77
2022/11/28 01:37:32;;;;;;;4.15;2.53;;;12.30;82.50;;;;;;4955493;28;20054;-77
2022/11/28 01:39:58;;;;;;;4.18;2.33;;;12.30;82.20;;;;;;4965865;28;20081;-77
2022/11/28 01:42:23;;;;;;;4.13;2.40;;;12.40;82.30;;;;;;4970208;28;20056;-78
2022/11/28 01:44:49;;;;;;;4.28;2.20;;;12.40;82.20;;;;;;4974408;28;20026;-79
2022/11/28 01:47:20;;;;;;;3.67;2.20;;;12.40;82.20;;;;;;4992957;28;20037;-78
2022/11/28 01:49:48;;;;;;;3.83;2.17;;;12.40;82.00;;;;;;4965519;28;20031;-78
2022/11/28 01:52:18;;;;;;;4.05;2.25;;;12.40;81.80;;;;;;4967783;28;20367;-77
2022/11/28 01:54:50;;;;;;;4.05;2.35;;;12.40;82.00;;;;;;4986486;28;20019;-77
2022/11/28 01:57:20;;;;;;;;;;;12.40;82.10;;;;;;4964381;28;20094;-76
2022/11/28 01:59:55;;;;;;;4.22;2.33;;;12.40;82.00;;;;;;4970940;28;19910;-77
2022/11/28 02:02:36;;;;;;;4.70;2.50;;;12.40;82.10;;;;;;4971260;28;20553;-76
2022/11/28 02:05:02;;;;;;;;;;;12.40;81.90;;;;;;4974408;28;20033;-77
2022/11/28 02:07:27;;;;;;;4.28;2.25;;;12.40;81.70;;;;;;4989627;28;19917;-77
2022/11/28 02:09:53;;;;;;;5.45;2.60;;;12.30;82.00;;;;;;4974269;28;20068;-77
2022/11/28 02:12:21;;;;;;;4.28;2.40;;;12.30;81.90;;;;;;4958957;28;20034;-76
2022/11/28 02:15:08;;;;;;;4.30;2.50;;;12.30;81.90;;;;;;4981458;28;20630;-77
2022/11/28 02:17:42;;;;;;;3.58;2.20;;;12.30;81.90;;;;;;4977688;28;20076;-77
2022/11/28 02:20:29;;;;;;;3.67;2.28;;;12.30;82.00;;;;;;4995163;28;20026;-77
2022/11/28 02:23:09;;;;;;;4.00;2.42;;;12.30;82.00;;;;;;4974866;28;20038;-76
2022/11/28 02:25:59;;;;;;;4.00;2.25;;;12.30;82.10;;;;;;4975607;28;20038;-76
2022/11/28 02:29:19;;;;;;;4.28;2.20;;;12.30;81.80;;;;;;4976005;28;20033;-77
2022/11/28 02:32:06;;;;;;;4.05;2.20;;;12.30;82.00;;;;;;4922739;28;20080;-78
2022/11/28 02:34:42;;;;;;;4.47;2.70;;;12.30;82.10;;;;;;4958499;28;20015;-77
2022/11/28 02:37:25;;;;;;;3.95;2.47;;;12.30;82.00;;;;;;4975428;28;20399;-76
2022/11/28 02:39:59;;;;;;;3.80;2.45;;;12.30;81.80;;;;;;4974298;28;20065;-77
2022/11/28 02:42:41;;;;;;;3.60;2.38;;;12.30;81.90;;;;;;4959947;28;20033;-76
2022/11/28 02:45:26;;;;;;;4.15;2.60;;;12.30;82.00;;;;;;4962281;28;20113;-78
2022/11/28 02:48:02;;;;;;;3.90;2.45;;;12.30;82.10;;;;;;4984573;28;20022;-77
2022/11/28 02:50:36;;;;;;;3.88;2.38;;;12.30;82.20;;;;;;4957825;28;20027;-77
2022/11/28 02:53:23;;;;;;;4.47;2.60;;;12.30;82.10;;;;;;4985764;28;20029;-77
2022/11/28 02:55:51;;;;;;;3.67;2.40;;;12.30;82.10;;;;;;4974146;28;20034;-77
2022/11/28 02:58:17;;;;;;;4.45;2.60;;;12.30;82.10;;;;;;4972004;28;20030;-77
2022/11/28 03:00:45;;;;;;;3.88;2.40;;;12.30;82.10;;;;;;4971527;28;20443;-77
2022/11/28 03:03:22;;;;;;;4.30;2.58;;;12.30;82.00;;;;;;4983750;28;20502;-78
2022/11/28 03:06:16;;;;;;;4.65;2.50;;;12.30;82.10;;;;;;4981820;28;20035;-77
2022/11/28 03:08:48;;;;;;;3.88;2.20;;;12.30;82.10;;;;;;4968474;28;20033;-77
2022/11/28 03:11:48;;;;;;;4.03;2.25;;;12.30;82.10;;;;;;4976896;28;20022;-76
2022/11/28 03:14:27;;;;;;;4.93;2.53;;;12.30;82.10;;;;;;4971736;28;20035;-77
2022/11/28 03:17:04;;;;;;;4.35;2.63;;;12.30;82.10;;;;;;4957776;28;20045;-77
2022/11/28 03:19:42;;;;;;;4.20;2.40;;;12.30;82.40;;;;;;4975247;28;20083;-77
2022/11/28 03:22:34;;;;;;;4.47;2.35;;;12.30;82.30;;;;;;4974600;28;20049;-76
2022/11/28 03:25:06;;;;;;;4.30;2.45;;;12.30;82.30;;;;;;4957863;28;20116;-77
2022/11/28 03:28:01;;;;;;;4.32;2.28;;;12.30;82.30;;;;;;4974565;28;20027;-77
2022/11/28 03:30:37;;;;;;;4.32;2.47;;;12.30;82.20;;;;;;4956511;28;20499;-77
2022/11/28 03:33:05;;;;;;;4.90;2.58;;;12.30;81.90;;;;;;4967225;28;20022;-77
2022/11/28 03:35:37;;;;;;;4.40;2.25;;;12.30;81.80;;;;;;4976699;28;20026;-77
2022/11/28 03:38:10;;;;;;;4.88;2.58;;;12.40;81.70;;;;;;4982655;28;20038;-77
2022/11/28 03:40:41;;;;;;;4.20;2.30;;;12.40;81.70;;;;;;4975381;28;20041;-76
2022/11/28 03:43:15;;;;;;;4.38;2.38;;;12.40;81.70;;;;;;4974013;28;20030;-77
2022/11/28 03:45:46;;;;;;;5.10;2.50;;;12.40;81.90;;;;;;4974229;28;20039;-77
2022/11/28 03:48:22;;;;;;;3.80;2.28;;;12.30;81.90;;;;;;4976065;28;20077;-77
2022/11/28 03:50:57;;;;;;;4.22;2.38;;;12.30;82.00;;;;;;4976031;28;20030;-77
2022/11/28 03:53:29;;;;;;;4.80;2.67;;;12.30;82.00;;;;;;4976476;28;20027;-77
2022/11/28 03:56:03;;;;;;;3.63;2.20;;;12.30;81.90;;;;;;4969007;28;20034;-77
2022/11/28 03:58:36;;;;;;;4.03;2.30;;;12.30;81.90;;;;;;4974014;28;20042;-77
2022/11/28 04:01:16;;;;;;;4.55;2.65;;;12.30;81.90;;;;;;4980580;28;20034;-76
2022/11/28 04:04:09;;;;;;;3.70;2.40;;;12.20;82.00;;;;;;4974818;28;20031;-76
2022/11/28 04:06:49;;;;;;;4.60;2.67;;;12.30;82.10;;;;;;4975727;28;20041;-76
2022/11/28 04:09:20;;;;;;;4.32;2.40;;;12.20;81.90;;;;;;4972404;28;20030;-76
2022/11/28 04:11:58;;;;;;;4.65;2.50;;;12.30;82.10;;;;;;4973931;28;20019;-76
2022/11/28 04:14:46;;;;;;;4.88;2.67;;;12.20;82.10;;;;;;4957764;28;20029;-77
2022/11/28 04:17:16;;;;;;;4.35;2.40;;;12.20;82.10;;;;;;4974166;28;20037;-76
2022/11/28 04:19:55;;;;;;;4.35;2.60;;;12.20;82.10;;;;;;4956212;28;20026;-78
2022/11/28 04:22:29;;;;;;;4.28;2.55;;;12.30;82.20;;;;;;4966141;28;20018;-76
2022/11/28 04:25:03;;;;;;;5.05;2.70;;;12.20;82.10;;;;;;4989183;28;20035;-78
2022/11/28 04:27:40;;;;;;;3.58;2.10;;;12.20;82.10;;;;;;4966962;28;20081;-78
2022/11/28 04:30:07;;;;;;;4.55;2.60;;;12.20;82.10;;;;;;4963991;28;20027;-77
2022/11/28 04:32:37;;;;;;;4.30;2.55;;;12.20;82.10;;;;;;4973550;28;20015;-77
2022/11/28 04:35:13;;;;;;;4.38;2.42;;;12.20;82.20;;;;;;4956104;28;20472;-78
2022/11/28 04:37:43;;;;;;;4.32;2.45;;;12.20;82.10;;;;;;4962387;28;20033;-77
2022/11/28 04:40:11;;;;;;;4.47;2.60;;;12.20;82.10;;;;;;4972059;28;20037;-78
2022/11/28 04:42:41;;;;;;;4.20;2.50;;;12.20;82.30;;;;;;4984076;28;20022;-77
2022/11/28 04:45:14;;;;;;;5.03;2.70;;;12.20;82.30;;;;;;4973343;28;20057;-75
2022/11/28 04:47:41;;;;;;;4.82;2.58;;;12.20;82.20;;;;;;4976544;28;20050;-77
2022/11/28 04:50:08;;;;;;;4.97;2.75;;;12.20;82.30;;;;;;4955658;28;20526;-78
2022/11/28 04:52:39;;;;;;;4.15;2.47;;;12.20;82.30;;;;;;4981339;28;20065;-78
2022/11/28 04:55:34;;;;;;;4.38;2.70;;;12.20;82.30;;;;;;4975573;28;20121;-77
2022/11/28 04:58:18;;;;;;;4.78;2.75;;;12.20;82.30;;;;;;4973359;28;20203;-77
2022/11/28 05:00:45;;;;;;;5.40;2.90;;;12.20;82.30;;;;;;4961453;28;20034;-77
2022/11/28 05:03:11;;;;;;;4.43;2.60;;;12.20;82.20;;;;;;4972910;28;20033;-77
2022/11/28 05:05:43;;;;;;;5.18;2.85;;;12.20;82.70;;;;;;4992427;28;20117;-77
2022/11/28 05:08:09;;;;;;;4.45;2.60;;;12.20;82.30;;;;;;4975421;28;20122;-76
2022/11/28 05:10:34;;;;;;;4.13;2.58;;;12.20;82.50;;;;;;4961397;28;20109;-77
2022/11/28 05:13:00;;;;;;;5.72;2.90;;;12.20;82.40;;;;;;4955922;28;20062;-77
2022/11/28 05:15:25;;;;;;;4.50;2.72;;;12.20;82.40;;;;;;4956149;28;20077;-77
2022/11/28 05:17:51;;;;;;;4.45;2.33;;;12.30;82.30;;;;;;4973307;28;20481;-77
2022/11/28 05:20:16;;;;;;;4.05;2.50;;;12.30;82.10;;;;;;4972814;28;20034;-78
2022/11/28 05:22:42;;;;;;;4.53;2.53;;;12.30;82.10;;;;;;4955802;28;20029;-77
2022/11/28 05:25:08;;;;;;;4.55;2.67;;;12.30;82.00;;;;;;4973374;28;20036;-77
2022/11/28 05:27:33;;;;;;;4.88;2.67;;;12.30;81.90;;;;;;4957729;28;20026;-78
2022/11/28 05:29:59;;;;;;;4.60;2.50;;;12.30;82.00;;;;;;4973642;28;20045;-78
2022/11/28 05:32:27;;;;;;;4.72;2.83;;;12.30;82.00;;;;;;4990857;28;20500;-77
2022/11/28 05:34:53;;;;;;;4.55;2.85;;;12.30;82.00;;;;;;4961707;28;20018;-75
2022/11/28 05:37:18;;;;;;;4.93;2.88;;;12.30;82.00;;;;;;4971044;28;20029;-77
2022/11/28 05:39:44;;;;;;;5.20;3.10;;;12.30;82.00;;;;;;4988994;28;20052;-77
2022/11/28 05:42:09;;;;;;;4.53;2.80;;;12.30;82.00;;;;;;4966337;28;20109;-78
2022/11/28 05:44:36;;;;;;;5.47;2.90;;;12.30;82.10;;;;;;4977177;28;20157;-78
2022/11/28 05:47:01;;;;;;;4.63;2.65;;;12.30;82.10;;;;;;4975318;28;20114;-77
2022/11/28 05:49:27;;;;;;;4.78;2.80;;;12.20;82.10;;;;;;4994699;28;20522;-76
2022/11/28 05:51:53;;;;;;;4.90;2.78;;;12.20;82.20;;;;;;4977671;28;20112;-77
2022/11/28 05:54:18;;;;;;;4.95;2.75;;;12.20;82.30;;;;;;4976575;28;20026;-78
2022/11/28 05:56:44;;;;;;;4.80;2.80;;;12.20;82.30;;;;;;4994154;28;20057;-75
2022/11/28 05:59:11;;;;;;;4.68;2.67;;;12.20;82.30;;;;;;4965853;28;20034;-77
2022/11/28 06:01:36;;;;;;;4.18;2.50;;;12.20;82.30;;;;;;4960115;28;20030;-75
2022/11/28 06:04:03;;;;;;;4.35;2.53;;;12.20;82.90;;;;;;4974086;28;20117;-75
2022/11/28 06:06:32;;;;;;;5.47;3.30;;;12.20;82.40;;;;;;4971909;28;20050;-77
2022/11/28 06:08:58;;;;;;;5.13;2.95;;;12.20;82.40;;;;;;4960271;28;20027;-76
2022/11/28 06:11:26;;;;;;;4.97;2.88;;;12.20;82.40;;;;;;4960216;28;20089;-75
2022/11/28 06:13:52;;;;;;;5.05;3.00;;;12.20;82.40;;;;;;4965736;28;20482;-75
2022/11/28 06:16:28;;;;;;;5.97;3.17;;;12.20;82.40;;;;;;4976258;28;20037;-77
2022/11/28 06:18:59;;;;;;;5.55;3.10;;;12.20;82.50;;;;;;4986585;28;20026;-77
2022/11/28 06:21:25;;;;;;;5.25;3.22;;;12.20;82.40;;;;;;4993576;28;20027;-78
2022/11/28 06:23:51;;;;;;;5.03;3.10;;;12.20;82.40;;;;;;4990926;28;20104;-78
2022/11/28 06:26:19;;;;;;;5.03;3.00;;;12.20;82.50;;;;;;4991650;28;20515;-77
2022/11/28 06:28:45;;;;;;;5.43;2.78;;;12.20;82.40;;;;;;4964011;28;20330;-77
2022/11/28 06:31:19;;;;;;;5.82;3.08;;;12.20;82.40;;;;;;4960071;28;20046;-78
2022/11/28 06:33:45;;;;;;;5.18;2.85;;;12.20;82.40;;;;;;4966802;28;20031;-78
2022/11/28 06:36:12;;;;;;;5.55;3.00;;;12.20;82.40;;;;;;4973836;28;20037;-75
2022/11/28 06:38:38;;;;;;;5.45;3.13;;;12.20;82.40;;;;;;4979814;28;20030;-80
2022/11/28 06:41:07;;;;;;;5.35;3.13;;;12.20;82.40;;;;;;4961408;28;20039;-78
2022/11/28 06:43:33;;;;;;;5.25;3.20;;;12.20;82.50;;;;;;4957962;28;20400;-78
2022/11/28 06:45:58;;;;;;;4.35;2.78;;;12.20;82.50;;;;;;4970107;28;20054;-77
2022/11/28 06:48:24;;;;;;;5.18;3.22;;;12.20;82.50;;;;;;4993898;28;20035;-77
2022/11/28 06:50:51;;;;;;;5.57;3.20;;;12.20;82.50;;;;;;4976159;28;20035;-78
2022/11/28 06:53:17;;;;;;;5.10;3.15;;;12.20;82.50;;;;;;4969287;28;20029;-77
2022/11/28 06:55:43;;;;;;;5.15;2.90;;;12.20;82.50;;;;;;4975107;28;20479;-79
2022/11/28 06:58:09;;;;;;;4.97;3.10;;;12.20;82.50;;;;;;4972190;28;20073;-77
2022/11/28 07:00:35;;;;;;;5.38;3.22;;;12.20;82.60;;;;;;4974568;28;20023;-77
2022/11/28 07:03:01;;;;;;;4.47;2.88;;;12.20;82.60;;;;;;4972460;28;20252;-86
2022/11/28 07:05:27;;;;;;;4.90;3.10;;;12.20;82.60;;;;;;4973721;28;20565;-85
2022/11/28 07:07:54;;;;;;;4.78;2.70;;;12.20;82.60;;;;;;4969004;28;20047;-84
2022/11/28 07:10:20;;;;;;;4.70;2.90;;;12.30;82.70;;;;;;4989595;28;20095;-84
2022/11/28 07:12:46;;;;;;;4.88;2.88;;;12.30;82.60;;;;;;4960313;28;20027;-84
2022/11/28 07:15:18;;;;;;;4.75;2.75;;;12.20;82.50;;;;;;4964531;28;20023;-83
2022/11/28 07:17:44;;;;;;;4.95;3.13;;;12.30;82.40;;;;;;4972987;28;20054;-77
2022/11/28 07:20:11;;;;;;;4.70;2.78;;;12.20;82.30;;;;;;4972053;28;20062;-76
2022/11/28 07:22:36;;;;;;;5.85;3.28;;;12.30;82.30;;;;;;4973833;28;20019;-77
2022/11/28 07:25:02;;;;;;;5.78;3.35;;;12.30;82.10;;;;;;4956291;28;20710;-77
2022/11/28 07:27:27;;;;;;;6.80;2.97;;;12.30;82.10;;;;;;4958083;28;20125;-77
2022/11/28 07:29:53;;;;;;;5.97;3.10;;;12.30;82.10;;;;;;4980491;28;20054;-76
2022/11/28 07:32:18;;;;;;;5.43;3.17;;;12.30;82.00;;;;;;4961837;28;20110;-77
2022/11/28 07:34:44;;;;;;;6.60;3.55;;;12.20;82.10;;;;;;4956922;28;20045;-77
2022/11/28 07:37:10;;;;;;;5.65;3.17;;;12.20;82.20;;;;;;4956221;28;20035;-77
2022/11/28 07:39:35;;;;;;;5.05;3.20;;;12.20;82.30;;;;;;4956568;28;20031;-75
2022/11/28 07:42:01;;;;;;;4.80;3.03;;;12.20;82.30;;;;;;4956934;28;20524;-77
2022/11/28 07:44:26;;;;;;;5.63;3.25;;;12.20;82.40;;;;;;4974102;28;20062;-77
2022/11/28 07:46:52;;;;;;;5.45;3.05;;;12.20;82.50;;;;;;4974250;28;20042;-77
2022/11/28 07:49:17;;;;;;;6.07;3.20;;;12.20;82.50;;;;;;4973799;28;20035;-77
2022/11/28 07:51:43;;;;;;;5.25;3.20;;;12.20;82.60;;;;;;4956728;28;20122;-76
2022/11/28 07:54:09;;;;;;;5.32;2.90;;;12.20;82.60;;;;;;4956692;28;20019;-77
2022/11/28 07:56:36;;;;;;;5.72;3.13;;;12.10;82.50;;;;;;4956615;28;20491;-77
2022/11/28 07:59:03;;;;;;;5.45;3.30;;;12.20;82.60;;;;;;4956716;28;20027;-77
2022/11/28 08:01:32;;;;;;;5.90;3.20;;;12.10;82.60;;;;;;4956302;28;20031;-77
2022/11/28 08:03:58;;;;;;;6.00;3.25;;;12.20;82.70;;;;;;4956521;28;20576;-78
2022/11/28 08:06:26;;;;;;;4.80;2.95;;;12.10;82.60;;;;;;4956564;28;20027;-78
2022/11/28 08:08:53;;;;;;;5.72;3.42;;;12.20;82.70;;;;;;4972825;28;20031;-77
2022/11/28 08:11:20;;;;;;;5.75;3.10;;;12.20;82.70;;;;;;4956191;28;20153;-77
2022/11/28 08:13:46;;;;;;;5.60;3.15;;;12.10;82.70;;;;;;4956265;28;20483;-77
2022/11/28 08:16:15;;;;;;;6.00;3.33;;;12.10;82.60;;;;;;4956292;28;20035;-77
2022/11/28 08:18:41;;;;;;;5.45;3.35;;;12.10;82.50;;;;;;4973680;28;20037;-77
2022/11/28 08:21:10;;;;;;;6.53;3.55;;;12.10;82.60;;;;;;4956055;28;20065;-77
2022/11/28 08:23:37;;;;;;;4.50;2.97;;;12.20;82.70;;;;;;4956119;28;20055;-77
2022/11/28 08:26:04;;;;;;;7.75;3.88;;;12.10;82.60;;;;;;4973435;28;20411;-77
2022/11/28 08:28:30;;;;;;;5.55;3.35;;;12.10;82.60;;;;;;4956058;28;20118;-78
2022/11/28 08:30:56;;;;;;;6.40;3.50;;;12.20;82.60;;;;;;4955824;28;20479;-77
2022/11/28 08:33:23;;;;;;;5.00;3.10;;;12.20;82.60;;;;;;4955843;28;20054;-78
2022/11/28 08:35:49;;;;;;;6.47;3.60;;;12.10;82.60;;;;;;4973437;28;20522;-77
2022/11/28 08:38:14;;;;;;;6.13;3.50;;;12.10;82.60;;;;;;4955866;28;20031;-77
2022/11/28 08:40:40;;;;;;;6.55;3.53;;;12.10;82.60;;;;;;4955719;28;20125;-77
2022/11/28 08:43:06;;;;;;;5.97;3.35;;;12.10;82.60;;;;;;4973290;28;20113;-77
2022/11/28 08:45:35;;;;;;;7.22;3.90;;;12.10;82.60;;;;;;4955687;28;20455;-78
2022/11/28 08:48:00;;;;;;;6.53;3.60;;;12.10;82.60;;;;;;4955736;28;20048;-77
2022/11/28 08:50:26;;;;;;;7.32;3.92;;;12.20;82.70;;;;;;4955379;28;20035;-77
2022/11/28 08:52:51;;;;;;;6.20;3.90;;;12.10;82.60;;;;;;4972996;28;20033;-77
2022/11/28 08:55:17;;;;;;;7.00;4.10;;;12.10;82.70;;;;;;4955626;28;20134;-78
2022/11/28 08:57:42;;;;;;;7.68;4.03;;;12.10;82.80;;;;;;4972966;28;20475;-77
2022/11/28 09:00:08;;;;;;;5.85;3.60;;;12.10;82.70;;;;;;4972574;28;20042;-78
2022/11/28 09:02:34;;;;;;;7.18;3.88;;;12.20;82.70;;;;;;4972760;28;20107;-78
2022/11/28 09:04:59;;;;;;;6.50;3.50;;;12.20;82.70;;;;;;4972760;28;20081;-78
2022/11/28 09:07:25;;;;;;;7.28;3.70;;;12.20;82.60;;;;;;4996467;23;20054;-77
2022/11/28 09:09:50;;;;;;;8.15;4.20;;;12.20;82.60;;;;;;4971350;28;20027;-76
2022/11/28 09:12:16;;;;;;;6.28;3.65;;;12.20;82.60;;;;;;4972255;28;20388;-77
2022/11/28 09:14:42;;;;;;;6.50;3.47;;;12.20;82.50;;;;;;4973512;28;20031;-77
2022/11/28 09:17:07;;;;;;;5.60;3.38;;;12.30;82.40;;;;;;4972196;28;20030;-77
2022/11/28 09:19:33;;;;;;;6.18;3.65;;;12.30;82.30;;;;;;4971496;28;20027;-77
2022/11/28 09:21:58;;;;;;;6.50;3.63;;;12.20;82.30;;;;;;4972067;28;20038;-77
2022/11/28 09:24:24;;;;;;;6.60;3.78;;;12.20;82.30;;;;;;4972204;28;20022;-77
2022/11/28 09:26:49;;;;;;;6.43;3.85;;;12.20;82.40;;;;;;4972012;28;20027;-77
2022/11/28 09:29:15;;;;;;;7.18;4.18;;;12.20;82.50;;;;;;4973148;28;20023;-77
2022/11/28 09:31:40;;;;;;;6.75;3.60;;;12.20;82.50;;;;;;4971842;28;20058;-77
2022/11/28 09:34:06;;;;;;;7.35;4.13;;;12.20;82.60;;;;;;4972180;28;20032;-78
2022/11/28 09:36:32;;;;;;;7.57;3.90;;;12.20;82.60;;;;;;4971918;28;20023;-77
2022/11/28 09:39:01;;;;;;;6.70;3.80;;;12.20;82.60;;;;;;4973238;28;20400;-77
2022/11/28 09:41:48;;;;;;;6.55;3.90;;;12.20;82.70;;;;;;4972976;28;20102;-77
2022/11/28 09:44:21;;;;;;;6.38;4.05;;;12.20;82.70;;;;;;4975878;28;20110;-81
2022/11/28 09:46:51;;;;;;;6.70;3.90;;;12.10;82.70;;;;;;4975279;28;20031;-79
2022/11/28 09:49:44;;;;;;;6.60;4.00;;;12.20;82.80;;;;;;4975504;28;20046;-79
2022/11/28 09:52:22;;;;;;;6.95;3.88;;;12.10;82.80;;;;;;4961603;28;20125;-80
2022/11/28 09:55:04;;;;;;;6.95;4.00;;;12.20;82.70;;;;;;4975243;28;20050;-78
2022/11/28 09:57:39;;;;;;;6.57;4.03;;;12.10;82.80;;;;;;4974702;28;20026;-80
2022/11/28 10:00:15;;;;;;;7.07;4.00;;;12.10;82.80;;;;;;4973687;28;20399;-80
2022/11/28 10:02:54;;;;;;;6.95;3.92;;;12.10;82.80;;;;;;4977944;28;20037;-79
2022/11/28 10:05:26;;;;;;;6.55;3.70;;;12.10;82.80;;;;;;4973768;28;20031;-80
2022/11/28 10:08:21;;;;;;;5.63;3.53;;;12.10;83.30;;;;;;4975661;28;20038;-80
2022/11/28 10:10:57;;;;;;;6.82;3.95;;;12.10;82.80;;;;;;4957243;28;20027;-81
2022/11/28 10:14:10;;;;;;;7.18;3.95;;;12.10;83.10;;;;;;4973892;28;20026;-77
2022/11/28 10:17:06;;;;;;;6.72;3.90;;;12.10;82.80;;;;;;4900009;29;20028;-79
2022/11/28 10:19:45;;;;;;;7.05;4.10;;;12.10;82.70;;;;;;4898641;29;20028;-81
2022/11/28 10:22:21;;;;;;;7.63;4.45;;;12.10;82.80;;;;;;4942862;28;20083;-78
2022/11/28 10:24:54;;;;;;;7.63;4.28;;;12.10;82.70;;;;;;4973960;28;20027;-78
2022/11/28 10:27:32;;;;;;;6.80;3.83;;;12.10;82.80;;;;;;4974176;28;20033;-79
2022/11/28 10:30:10;;;;;;;7.05;4.13;;;12.10;82.80;;;;;;4972333;28;20034;-78
2022/11/28 10:32:41;;;;;;;6.60;3.90;;;12.10;82.70;;;;;;4976265;28;20029;-78
2022/11/28 10:35:24;;;;;;;6.73;3.90;;;12.10;82.70;;;;;;4975964;28;20387;-80
2022/11/28 10:37:50;;;;;;;7.72;4.20;;;12.10;82.70;;;;;;4976627;28;20039;-78
2022/11/28 10:40:22;;;;;;;6.93;3.83;;;12.10;82.80;;;;;;4975876;28;20118;-78
2022/11/28 10:42:57;;;;;;;6.03;3.83;;;12.10;82.70;;;;;;4976386;28;20066;-79
2022/11/28 10:46:08;;;;;;;7.25;4.00;;;12.10;82.70;;;;;;4976051;28;20073;-80
2022/11/28 10:48:54;;;;;;;6.63;4.20;;;12.10;82.70;;;;;;4937115;28;20418;-77
2022/11/28 10:51:27;;;;;;;6.88;4.38;;;12.20;82.80;;;;;;4975289;28;20059;-77
2022/11/28 10:53:59;;;;;;;6.68;4.07;;;12.10;82.90;;;;;;4975421;28;20023;-79
2022/11/28 10:57:01;;;;;;;6.75;4.13;;;12.10;82.80;;;;;;4977004;28;20029;-77
2022/11/28 10:59:42;;;;;;;6.85;4.10;;;12.10;82.70;;;;;;4975074;28;20125;-77
2022/11/28 11:02:20;;;;;;;7.20;4.47;;;12.20;82.80;;;;;;4975219;28;20077;-79
2022/11/28 11:04:46;;;;;;;6.20;3.72;;;12.20;82.70;;;;;;4976697;28;20047;-77
2022/11/28 11:07:17;;;;;;;6.75;4.00;;;12.20;82.60;;;;;;4976306;28;20058;-77
2022/11/28 11:09:42;;;;;;;6.60;4.10;;;12.20;82.60;;;;;;4976299;28;20054;-77
2022/11/28 11:12:19;;;;;;;6.70;3.90;;;12.20;82.50;;;;;;4975183;28;20065;-77
2022/11/28 11:14:45;;;;;;;6.82;4.00;;;12.30;82.50;;;;;;4976048;28;20034;-77
2022/11/28 11:17:34;;;;;;;7.35;4.15;;;12.20;82.40;;;;;;4976395;28;20030;-77
2022/11/28 11:20:00;;;;;;;6.78;3.75;;;12.20;82.30;;;;;;4976134;28;20031;-77
2022/11/28 11:22:30;;;;;;;6.55;3.67;;;12.20;82.20;;;;;;4976154;28;20023;-77
2022/11/28 11:25:11;;;;;;;7.07;4.55;;;12.20;82.40;;;;;;4974625;28;20027;-77
2022/11/28 11:27:45;;;;;;;6.82;4.00;;;12.20;82.40;;;;;;4974560;28;20034;-78
2022/11/28 11:30:29;;;;;;;7.28;4.35;;;12.20;82.60;;;;;;4974043;28;20042;-77
2022/11/28 11:32:57;;;;;;;6.43;4.10;;;12.20;82.60;;;;;;4974327;28;20023;-77
2022/11/28 11:35:26;;;;;;;6.85;4.20;;;12.20;82.60;;;;;;4975632;28;20081;-77
2022/11/28 11:37:52;;;;;;;6.45;4.03;;;12.10;82.60;;;;;;4975253;28;20134;-77
2022/11/28 11:40:21;;;;;;;6.57;4.07;;;12.10;82.60;;;;;;4974304;28;20082;-77
2022/11/28 11:42:52;;;;;;;6.55;4.03;;;12.10;83.20;;;;;;4974796;28;20146;-77
2022/11/28 11:45:32;;;;;;;6.00;3.75;;;12.10;82.80;;;;;;4973574;28;20034;-79
2022/11/28 11:47:57;;;;;;;6.63;3.90;;;12.10;82.80;;;;;;4973955;28;20051;-77
2022/11/28 11:50:26;;;;;;;7.50;4.47;;;12.10;82.80;;;;;;4974773;28;20530;-77
2022/11/28 11:53:12;;;;;;;6.43;4.18;;;12.10;82.90;;;;;;4973546;28;20023;-77
2022/11/28 11:55:51;;;;;;;6.55;3.95;;;12.10;82.80;;;;;;4973438;28;20058;-77
2022/11/28 11:58:31;;;;;;;6.35;3.88;;;12.10;82.90;;;;;;4973437;28;20049;-76
2022/11/28 12:00:58;;;;;;;7.32;4.18;;;12.10;82.90;;;;;;4973012;28;20620;-77
2022/11/28 12:03:47;;;;;;;7.43;4.00;;;12.20;83.50;;;;;;4973209;28;20555;-78
2022/11/28 12:06:21;;;;;;;7.88;4.40;;;12.10;82.90;;;;;;4973149;28;20035;-77
2022/11/28 12:08:50;;;;;;;7.35;4.50;;;12.20;83.00;;;;;;4973165;28;20414;-77
2022/11/28 12:11:29;;;;;;;7.00;3.97;;;12.10;82.90;;;;;;4972871;28;20117;-77
2022/11/28 12:14:02;;;;;;;6.80;4.30;;;12.10;82.90;;;;;;4974229;28;20050;-77
2022/11/28 12:16:30;;;;;;;7.15;4.00;;;12.10;82.90;;;;;;4973168;28;20116;-77
2022/11/28 12:19:12;;;;;;;7.72;4.45;;;12.10;82.90;;;;;;4974168;28;20443;-77
2022/11/28 12:22:05;;;;;;;6.75;4.32;;;12.10;82.90;;;;;;4976588;28;20058;-80
2022/11/28 12:24:55;;;;;;;7.57;4.45;;;12.10;82.90;;;;;;4980674;28;20027;-80
2022/11/28 12:27:39;;;;;;;7.00;4.13;;;12.10;82.90;;;;;;4975881;28;20049;-79
2022/11/28 12:30:28;;;;;;;6.68;4.10;;;12.10;82.90;;;;;;4974916;28;20435;-81
2022/11/28 12:33:12;;;;;;;6.88;4.18;;;12.10;82.90;;;;;;4976338;28;20403;-79
2022/11/28 12:36:05;;;;;;;7.13;4.50;;;12.10;82.90;;;;;;4959348;28;20022;-79
2022/11/28 12:38:52;;;;;;;7.63;4.72;;;12.10;82.90;;;;;;4976918;28;20077;-78
2022/11/28 12:41:47;;;;;;;7.40;4.60;;;12.10;82.90;;;;;;4978171;28;20391;-77
2022/11/28 12:44:34;;;;;;;7.63;4.30;;;12.10;83.00;;;;;;4959299;28;20026;-78
2022/11/28 12:47:17;;;;;;;7.40;4.45;;;12.10;82.90;;;;;;4977512;28;20120;-78
2022/11/28 12:50:15;;;;;;;7.93;4.53;;;12.10;83.00;;;;;;4975796;28;20056;-81
2022/11/28 12:53:20;;;;;;;7.78;4.43;;;12.10;83.00;;;;;;4943010;28;20034;-78
2022/11/28 12:56:03;;;;;;;7.88;4.55;;;12.10;83.50;;;;;;4975206;28;20106;-79
2022/11/28 12:58:36;;;;;;;6.78;4.20;;;12.10;82.90;;;;;;4975636;28;20062;-79
2022/11/28 13:01:10;;;;;;;7.40;4.45;;;12.20;82.90;;;;;;4974674;28;20018;-77
2022/11/28 13:04:02;;;;;;;7.28;4.32;;;12.20;82.80;;;;;;4974824;28;20074;-77
2022/11/28 13:06:33;;;;;;;7.85;4.35;;;12.20;82.70;;;;;;4974156;28;20034;-77
2022/11/28 13:09:29;;;;;;;6.97;4.35;;;12.20;82.60;;;;;;4975112;28;20105;-77
2022/11/28 13:12:04;;;;;;;7.25;4.20;;;12.20;82.60;;;;;;4947506;28;20066;-77
2022/11/28 13:14:49;;;;;;;7.78;5.00;;;12.20;82.50;;;;;;4974565;28;20019;-78